KAC742 OKKK-OBBI
Flight info
| Callsign | KAC742 |
|---|---|
| Flight time | 0h 25m |
| Altitude | 27000 |
| Route | BOXIK B416 IMDOX P975 LONOS L703 KOBOK |
| Aircraft | A320/M-SDE3FGHIRWY/LB1 |
Departure
| Time | 2026-05-05 18:09 |
|---|---|
| Airport | Kuwait International Airport (OKKK) |
Arrival
| Time | 2026-05-05 18:35 |
|---|---|
| Airport | Bahrain International Airport (OBBI) |
| Time | Latitude | Longitude | Altitude | Speed | Heading |
|---|---|---|---|---|---|
| 2026-05-05 17:22 | 29.25117 | 47.95997 | 167 ft | 0 kts | 67° |
| 2026-05-05 17:53 | 29.25116 | 47.95994 | 167 ft | 2 kts | 67° |
| 2026-05-05 17:54 | 29.25110 | 47.95976 | 167 ft | 2 kts | 67° |
| 2026-05-05 17:54 | 29.25103 | 47.95957 | 167 ft | 3 kts | 67° |
| 2026-05-05 17:54 | 29.25096 | 47.95939 | 167 ft | 3 kts | 67° |
| 2026-05-05 17:54 | 29.25089 | 47.95921 | 166 ft | 2 kts | 90° |
| 2026-05-05 17:55 | 29.25092 | 47.95901 | 166 ft | 2 kts | 136° |
| 2026-05-05 17:55 | 29.25099 | 47.95895 | 166 ft | 0 kts | 153° |
| 2026-05-05 17:57 | 29.25071 | 47.95899 | 166 ft | 9 kts | 191° |
| 2026-05-05 17:57 | 29.25012 | 47.95888 | 165 ft | 11 kts | 157° |
| 2026-05-05 17:57 | 29.24924 | 47.95937 | 165 ft | 14 kts | 155° |
| 2026-05-05 17:57 | 29.24867 | 47.95968 | 165 ft | 8 kts | 155° |
| 2026-05-05 17:58 | 29.24821 | 47.95992 | 165 ft | 7 kts | 155° |
| 2026-05-05 17:58 | 29.24783 | 47.96012 | 165 ft | 5 kts | 155° |
| 2026-05-05 17:58 | 29.24751 | 47.96028 | 165 ft | 4 kts | 155° |
| 2026-05-05 17:58 | 29.24726 | 47.96041 | 165 ft | 3 kts | 155° |
| 2026-05-05 17:59 | 29.24707 | 47.96051 | 165 ft | 3 kts | 155° |
| 2026-05-05 17:59 | 29.24693 | 47.96059 | 165 ft | 2 kts | 155° |
| 2026-05-05 17:59 | 29.24684 | 47.96064 | 165 ft | 2 kts | 155° |
| 2026-05-05 17:59 | 29.24669 | 47.96071 | 165 ft | 2 kts | 155° |
| 2026-05-05 18:00 | 29.24658 | 47.96077 | 165 ft | 1 kts | 155° |
| 2026-05-05 18:00 | 29.24652 | 47.96080 | 165 ft | 1 kts | 155° |
| 2026-05-05 18:00 | 29.24650 | 47.96081 | 165 ft | 0 kts | 155° |
| 2026-05-05 18:00 | 29.24648 | 47.96082 | 165 ft | 1 kts | 156° |
| 2026-05-05 18:01 | 29.24647 | 47.96083 | 165 ft | 0 kts | 156° |
| 2026-05-05 18:01 | 29.24630 | 47.96091 | 165 ft | 3 kts | 156° |
| 2026-05-05 18:01 | 29.24613 | 47.96100 | 165 ft | 2 kts | 156° |
| 2026-05-05 18:02 | 29.24564 | 47.96129 | 165 ft | 11 kts | 153° |
| 2026-05-05 18:02 | 29.24501 | 47.96165 | 165 ft | 9 kts | 154° |
| 2026-05-05 18:02 | 29.24446 | 47.96194 | 165 ft | 8 kts | 155° |
| 2026-05-05 18:02 | 29.24399 | 47.96218 | 165 ft | 7 kts | 155° |
| 2026-05-05 18:03 | 29.24352 | 47.96242 | 165 ft | 14 kts | 158° |
| 2026-05-05 18:03 | 29.24236 | 47.96303 | 165 ft | 19 kts | 152° |
| 2026-05-05 18:03 | 29.24110 | 47.96371 | 166 ft | 21 kts | 155° |
| 2026-05-05 18:03 | 29.23972 | 47.96442 | 165 ft | 22 kts | 155° |
| 2026-05-05 18:04 | 29.23826 | 47.96520 | 166 ft | 26 kts | 154° |
| 2026-05-05 18:04 | 29.23618 | 47.96632 | 170 ft | 29 kts | 156° |
| 2026-05-05 18:04 | 29.23443 | 47.96724 | 177 ft | 27 kts | 154° |
| 2026-05-05 18:04 | 29.23272 | 47.96821 | 177 ft | 28 kts | 153° |
| 2026-05-05 18:05 | 29.23090 | 47.96932 | 171 ft | 31 kts | 156° |
| 2026-05-05 18:05 | 29.22879 | 47.97023 | 170 ft | 33 kts | 154° |
| 2026-05-05 18:05 | 29.22671 | 47.97134 | 169 ft | 33 kts | 158° |
| 2026-05-05 18:05 | 29.22459 | 47.97246 | 169 ft | 34 kts | 155° |
| 2026-05-05 18:06 | 29.22247 | 47.97359 | 169 ft | 34 kts | 155° |
| 2026-05-05 18:06 | 29.22105 | 47.97434 | 168 ft | 34 kts | 155° |
| 2026-05-05 18:06 | 29.21888 | 47.97551 | 168 ft | 26 kts | 155° |
| 2026-05-05 18:06 | 29.21697 | 47.97652 | 169 ft | 33 kts | 155° |
| 2026-05-05 18:07 | 29.21494 | 47.97759 | 170 ft | 32 kts | 154° |
| 2026-05-05 18:07 | 29.21304 | 47.97858 | 171 ft | 22 kts | 167° |
| 2026-05-05 18:07 | 29.21252 | 47.97806 | 172 ft | 7 kts | 249° |
| 2026-05-05 18:07 | 29.21245 | 47.97761 | 173 ft | 6 kts | 275° |
| 2026-05-05 18:08 | 29.21267 | 47.97689 | 176 ft | 9 kts | 300° |
| 2026-05-05 18:08 | 29.21341 | 47.97594 | 182 ft | 30 kts | 321° |
| 2026-05-05 18:08 | 29.21521 | 47.97496 | 180 ft | 30 kts | 335° |
| 2026-05-05 18:08 | 29.21711 | 47.97395 | 181 ft | 30 kts | 335° |
| 2026-05-05 18:09 | 29.22010 | 47.97236 | 194 ft | 79 kts | 335° |
| 2026-05-05 18:09 | 29.22709 | 47.96864 | 183 ft | 139 kts | 335° |
| 2026-05-05 18:09 | 29.23705 | 47.96333 | 363 ft | 172 kts | 335° |
| 2026-05-05 18:09 | 29.24851 | 47.95722 | 851 ft | 189 kts | 334° |
| 2026-05-05 18:10 | 29.26074 | 47.95034 | 1399 ft | 203 kts | 332° |
| 2026-05-05 18:10 | 29.27384 | 47.94237 | 1906 ft | 224 kts | 332° |
| 2026-05-05 18:10 | 29.28865 | 47.93440 | 2427 ft | 246 kts | 336° |
| 2026-05-05 18:10 | 29.30521 | 47.92687 | 3039 ft | 265 kts | 339° |
| 2026-05-05 18:11 | 29.32324 | 47.91970 | 3675 ft | 283 kts | 341° |
| 2026-05-05 18:11 | 29.34140 | 47.91302 | 4250 ft | 271 kts | 342° |
| 2026-05-05 18:11 | 29.35910 | 47.91104 | 5371 ft | 246 kts | 13° |
| 2026-05-05 18:11 | 29.37315 | 47.92107 | 6350 ft | 251 kts | 53° |
| 2026-05-05 18:12 | 29.38134 | 47.93995 | 6416 ft | 273 kts | 68° |
| 2026-05-05 18:12 | 29.38769 | 47.96064 | 6398 ft | 276 kts | 72° |
| 2026-05-05 18:12 | 29.39533 | 47.98082 | 6394 ft | 276 kts | 61° |
| 2026-05-05 18:12 | 29.40513 | 47.99973 | 6397 ft | 276 kts | 57° |
| 2026-05-05 18:13 | 29.41440 | 48.01904 | 6396 ft | 276 kts | 67° |
| 2026-05-05 18:13 | 29.41954 | 48.04012 | 6396 ft | 276 kts | 83° |
| 2026-05-05 18:13 | 29.41938 | 48.06207 | 6395 ft | 276 kts | 98° |
| 2026-05-05 18:13 | 29.41451 | 48.08335 | 6396 ft | 276 kts | 112° |
| 2026-05-05 18:14 | 29.37725 | 48.13820 | 6691 ft | 280 kts | 135° |
| 2026-05-05 18:14 | 29.32069 | 48.20333 | 10136 ft | 289 kts | 135° |
| 2026-05-05 18:14 | 29.25849 | 48.27468 | 12308 ft | 345 kts | 135° |
| 2026-05-05 18:14 | 29.18931 | 48.35370 | 15177 ft | 359 kts | 135° |
| 2026-05-05 18:15 | 29.11730 | 48.43615 | 17765 ft | 373 kts | 135° |
| 2026-05-05 18:15 | 29.04234 | 48.52176 | 20079 ft | 386 kts | 135° |
| 2026-05-05 18:15 | 28.96488 | 48.60993 | 22144 ft | 399 kts | 135° |
| 2026-05-05 18:15 | 28.91167 | 48.67041 | 23405 ft | 407 kts | 135° |
| 2026-05-05 18:16 | 28.84509 | 48.74602 | 24830 ft | 416 kts | 135° |
| 2026-05-05 18:16 | 28.77522 | 48.85182 | 26377 ft | 426 kts | 118° |
| 2026-05-05 18:16 | 28.71722 | 48.96973 | 26907 ft | 430 kts | 120° |
| 2026-05-05 18:17 | 28.65910 | 49.08749 | 27032 ft | 424 kts | 119° |
| 2026-05-05 18:17 | 28.60050 | 49.20550 | 27037 ft | 429 kts | 123° |
| 2026-05-05 18:17 | 28.50778 | 49.28726 | 26935 ft | 428 kts | 147° |
| 2026-05-05 18:17 | 28.41855 | 49.37648 | 27013 ft | 424 kts | 139° |
| 2026-05-05 18:18 | 28.32836 | 49.46445 | 27057 ft | 428 kts | 139° |
| 2026-05-05 18:18 | 28.23861 | 49.55325 | 26940 ft | 429 kts | 139° |
| 2026-05-05 18:18 | 28.14582 | 49.63714 | 26991 ft | 425 kts | 144° |
| 2026-05-05 18:18 | 28.05051 | 49.71719 | 27046 ft | 426 kts | 143° |
| 2026-05-05 18:19 | 27.95290 | 49.79430 | 27024 ft | 428 kts | 146° |
| 2026-05-05 18:19 | 27.85440 | 49.86997 | 27019 ft | 428 kts | 146° |
| 2026-05-05 18:19 | 27.75630 | 49.94622 | 27006 ft | 427 kts | 146° |
| 2026-05-05 18:19 | 27.65951 | 50.02091 | 26999 ft | 426 kts | 146° |
| 2026-05-05 18:20 | 27.56178 | 50.09645 | 26995 ft | 426 kts | 146° |
| 2026-05-05 18:20 | 27.46266 | 50.17269 | 26994 ft | 426 kts | 146° |
| 2026-05-05 18:20 | 27.36695 | 50.24876 | 26992 ft | 426 kts | 144° |
| 2026-05-05 18:20 | 27.27093 | 50.32743 | 26987 ft | 426 kts | 144° |
| 2026-05-05 18:21 | 27.17429 | 50.40543 | 26985 ft | 427 kts | 144° |
| 2026-05-05 18:21 | 27.07729 | 50.48352 | 25890 ft | 441 kts | 144° |
| 2026-05-05 18:21 | 26.96967 | 50.55974 | 21042 ft | 460 kts | 165° |
| 2026-05-05 18:21 | 26.84603 | 50.56914 | 18177 ft | 437 kts | 178° |
| 2026-05-05 18:22 | 26.77339 | 50.57285 | 16442 ft | 426 kts | 178° |
| 2026-05-05 18:22 | 26.74387 | 50.57426 | 15739 ft | 421 kts | 178° |
| 2026-05-05 18:22 | 26.71482 | 50.57556 | 15033 ft | 417 kts | 178° |
| 2026-05-05 18:22 | 26.68596 | 50.57688 | 14329 ft | 413 kts | 178° |
| 2026-05-05 18:23 | 26.65734 | 50.57818 | 13630 ft | 409 kts | 178° |
| 2026-05-05 18:23 | 26.62913 | 50.57946 | 13147 ft | 400 kts | 178° |
| 2026-05-05 18:23 | 26.60197 | 50.58071 | 12989 ft | 382 kts | 178° |
| 2026-05-05 18:23 | 26.57599 | 50.58193 | 12902 ft | 365 kts | 178° |
| 2026-05-05 18:24 | 26.55113 | 50.58307 | 12737 ft | 351 kts | 178° |
| 2026-05-05 18:24 | 26.52709 | 50.58557 | 12377 ft | 344 kts | 166° |
| 2026-05-05 18:24 | 26.50573 | 50.59637 | 12240 ft | 332 kts | 144° |
| 2026-05-05 18:24 | 26.48983 | 50.61426 | 12113 ft | 320 kts | 123° |
| 2026-05-05 18:25 | 26.48102 | 50.63608 | 11978 ft | 309 kts | 103° |
| 2026-05-05 18:25 | 26.47914 | 50.65188 | 11894 ft | 302 kts | 91° |
| 2026-05-05 18:25 | 26.47636 | 50.68305 | 10983 ft | 314 kts | 104° |
| 2026-05-05 18:25 | 26.46838 | 50.70626 | 10081 ft | 328 kts | 119° |
| 2026-05-05 18:26 | 26.45389 | 50.72628 | 9097 ft | 340 kts | 141° |
| 2026-05-05 18:26 | 26.43261 | 50.73739 | 8597 ft | 335 kts | 170° |
| 2026-05-05 18:26 | 26.41011 | 50.73679 | 8466 ft | 319 kts | 196° |
| 2026-05-05 18:26 | 26.39131 | 50.72528 | 8342 ft | 304 kts | 225° |
| 2026-05-05 18:27 | 26.38090 | 50.70573 | 8205 ft | 289 kts | 256° |
| 2026-05-05 18:27 | 26.38072 | 50.68405 | 8084 ft | 277 kts | 285° |
| 2026-05-05 18:27 | 26.38914 | 50.66537 | 7899 ft | 267 kts | 309° |
| 2026-05-05 18:27 | 26.40053 | 50.64918 | 7636 ft | 262 kts | 303° |
| 2026-05-05 18:28 | 26.41968 | 50.61668 | 7379 ft | 240 kts | 303° |
| 2026-05-05 18:28 | 26.42866 | 50.60141 | 7251 ft | 230 kts | 303° |
| 2026-05-05 18:28 | 26.43736 | 50.58652 | 6811 ft | 234 kts | 303° |
| 2026-05-05 18:29 | 26.44659 | 50.57067 | 6035 ft | 253 kts | 302° |
| 2026-05-05 18:29 | 26.45603 | 50.55338 | 5190 ft | 270 kts | 294° |
| 2026-05-05 18:29 | 26.45996 | 50.53256 | 4342 ft | 284 kts | 268° |
| 2026-05-05 18:29 | 26.45458 | 50.51109 | 3478 ft | 293 kts | 239° |
| 2026-05-05 18:30 | 26.44023 | 50.49518 | 2615 ft | 291 kts | 208° |
| 2026-05-05 18:30 | 26.42157 | 50.48930 | 2348 ft | 268 kts | 182° |
| 2026-05-05 18:30 | 26.40391 | 50.49091 | 2231 ft | 242 kts | 173° |
| 2026-05-05 18:30 | 26.38811 | 50.49315 | 2223 ft | 216 kts | 173° |
| 2026-05-05 18:31 | 26.37401 | 50.49524 | 2245 ft | 192 kts | 173° |
| 2026-05-05 18:31 | 26.36153 | 50.49714 | 2234 ft | 172 kts | 171° |
| 2026-05-05 18:31 | 26.35081 | 50.50141 | 2219 ft | 157 kts | 149° |
| 2026-05-05 18:31 | 26.34291 | 50.50894 | 2205 ft | 145 kts | 129° |
| 2026-05-05 18:32 | 26.33738 | 50.51811 | 2084 ft | 141 kts | 123° |
| 2026-05-05 18:32 | 26.33219 | 50.52712 | 1933 ft | 139 kts | 123° |
| 2026-05-05 18:32 | 26.32704 | 50.53606 | 1769 ft | 136 kts | 123° |
| 2026-05-05 18:32 | 26.32185 | 50.54507 | 1589 ft | 136 kts | 123° |
| 2026-05-05 18:33 | 26.31677 | 50.55391 | 1409 ft | 135 kts | 123° |
| 2026-05-05 18:33 | 26.31170 | 50.56270 | 1230 ft | 135 kts | 123° |
| 2026-05-05 18:33 | 26.30670 | 50.57138 | 1054 ft | 135 kts | 123° |
| 2026-05-05 18:33 | 26.30160 | 50.58024 | 873 ft | 134 kts | 123° |
| 2026-05-05 18:34 | 26.29661 | 50.58890 | 692 ft | 134 kts | 123° |
| 2026-05-05 18:34 | 26.29159 | 50.59760 | 520 ft | 133 kts | 123° |
| 2026-05-05 18:34 | 26.28659 | 50.60629 | 345 ft | 133 kts | 123° |
| 2026-05-05 18:34 | 26.28164 | 50.61495 | 166 ft | 132 kts | 122° |
| 2026-05-05 18:35 | 26.27678 | 50.62352 | 44 ft | 130 kts | 123° |
| 2026-05-05 18:35 | 26.27232 | 50.63113 | 19 ft | 96 kts | 122° |
| 2026-05-05 18:35 | 26.26966 | 50.63567 | 20 ft | 46 kts | 123° |
| 2026-05-05 18:35 | 26.26873 | 50.63710 | 19 ft | 9 kts | 135° |
| 2026-05-05 18:36 | 26.26827 | 50.63737 | 19 ft | 6 kts | 165° |
| 2026-05-05 18:36 | 26.26789 | 50.63749 | 20 ft | 5 kts | 165° |
| 2026-05-05 18:36 | 26.26758 | 50.63758 | 20 ft | 5 kts | 167° |
| 2026-05-05 18:36 | 26.26726 | 50.63766 | 20 ft | 7 kts | 168° |
| 2026-05-05 18:37 | 26.26669 | 50.63755 | 19 ft | 0 kts | 223° |
| 2026-05-05 18:37 | 26.26668 | 50.63742 | 21 ft | 2 kts | 265° |
| 2026-05-05 18:37 | 26.26669 | 50.63729 | 19 ft | 1 kts | 283° |
| 2026-05-05 18:37 | 26.26679 | 50.63709 | 20 ft | 3 kts | 299° |
| 2026-05-05 18:38 | 26.26690 | 50.63687 | 21 ft | 4 kts | 300° |
| 2026-05-05 18:38 | 26.26704 | 50.63663 | 21 ft | 3 kts | 302° |
| 2026-05-05 18:38 | 26.26715 | 50.63643 | 19 ft | 3 kts | 302° |
| 2026-05-05 18:38 | 26.26724 | 50.63627 | 19 ft | 2 kts | 303° |
| 2026-05-05 18:39 | 26.26729 | 50.63619 | 19 ft | 5 kts | 304° |
| 2026-05-05 18:39 | 26.26755 | 50.63576 | 19 ft | 13 kts | 303° |
| 2026-05-05 18:39 | 26.26809 | 50.63486 | 19 ft | 15 kts | 302° |
| 2026-05-05 18:40 | 26.26831 | 50.63388 | 19 ft | 11 kts | 219° |
| 2026-05-05 18:40 | 26.26776 | 50.63347 | 20 ft | 8 kts | 265° |
| 2026-05-05 18:40 | 26.26804 | 50.63295 | 19 ft | 7 kts | 303° |
| 2026-05-05 18:40 | 26.26831 | 50.63238 | 21 ft | 10 kts | 297° |
| 2026-05-05 18:41 | 26.26865 | 50.63181 | 20 ft | 8 kts | 302° |
| 2026-05-05 18:41 | 26.26895 | 50.63129 | 19 ft | 7 kts | 302° |
| 2026-05-05 18:41 | 26.26920 | 50.63085 | 21 ft | 6 kts | 302° |
| 2026-05-05 18:41 | 26.26941 | 50.63048 | 19 ft | 5 kts | 302° |
| 2026-05-05 18:42 | 26.26959 | 50.63017 | 19 ft | 5 kts | 303° |
| 2026-05-05 18:42 | 26.27025 | 50.62907 | 19 ft | 26 kts | 302° |
| 2026-05-05 18:42 | 26.27048 | 50.62840 | 19 ft | 11 kts | 260° |
| 2026-05-05 18:42 | 26.26992 | 50.62796 | 21 ft | 9 kts | 212° |
| 2026-05-05 18:43 | 26.26973 | 50.62782 | 19 ft | 0 kts | 215° |
| 2026-05-05 18:46 | 26.26972 | 50.62782 | 20 ft | 0 kts | 215° |